Detall de PIREP

Printer-friendly versionPDF version

[2010/11/01 22:27:00]
Flight IATA:CT2100
Pilot Number:026
Company ICAO:CAT
Aircraft Type:DC85/A
PAX:136
Departing Airport: LEVC
Destination Airport: LEAS
Alternate Airport:LEMD
Online: VATSIM
Route:CENTA/N380F230 A33 PRADO/N470F330 UN733 ZMR UM30 ROVAK R107 XONDA
Flight Level:FL310
No Slew and time accel
No pause
Crash detect
Detect pilot in Cockpit between each 30 and 45 minutes
22:27 Zero fuel Weight: 182027 Lbs, Fuel Weight: 30011 Lbs
22:27 VATSIM:LEVC 012200Z 33018G29KT 300V360 CAVOK 19/05 Q1013 NOSIG
22:27 VATSIM:LEAS 012200Z 26007KT 9999 SCT040 13/12 Q1024 NOSIG
22:28 VOICE CATALONIAN / LEVC HUB ROUTE
22:30 Parking Brakes off
22:35 Take-off
22:35 Take off Weight: 211239 Lbs
22:35 Wind: 328º @ 016 Knots Heading: 299º
22:35 POS N39º 29´ 27´´ W000º 29´ 08´´
22:35 Gear Up: 177 Knots
22:35 Flaps:2 at 177 Knots
22:36 Flaps:1 at 224 Knots
22:37 Flaps:0 at 271 Knots
22:50 Wind:319º@031 Knots Heading: 300º Ground Speed: 412 Knots Altitude 29196 ft
22:51 TOC
22:51 Fuel Weight: 23903 Lb
23:05 Wind:348º@024 Knots Heading: 298º Ground Speed: 470 Knots Altitude 31200 ft
23:11 TOD
23:11 Fuel Weight: 18878 Lb
23:20 Wind:319º@030 Knots Heading: 351º Ground Speed: 391 Knots Altitude 19002 ft
23:33 Flaps:1 at 252 Knots
23:33 Gear Down: 244 Knots
23:35 Wind:260º@014 Knots Heading: 281º Ground Speed: 165 Knots Altitude 4504 ft
23:37 Flaps:2 at 183 Knots
23:38 Flaps:3 at 181 Knots
23:38 Flaps:4 at 177 Knots
23:39 Flaps:3 at 143 Knots
23:39 Flaps:2 at 172 Knots
23:39 Gear Up: 177 Knots
23:40 Flaps:1 at 205 Knots
23:42 Flaps:0 at 271 Knots
23:50 Wind:260º@013 Knots Heading: 278º Ground Speed: 188 Knots Altitude 3589 ft
23:50 Flaps:1 at 190 Knots
23:50 Gear Down: 199 Knots
23:51 Flaps:2 at 172 Knots
23:52 Flaps:3 at 171 Knots
23:53 Flaps:4 at 169 Knots
23:53 Flaps:5 at 164 Knots
23:54 TouchDown:Rate -199 ft/min Speed: 129 Knots
23:54 VATSIM:LEAS 012230Z 26008KT 9999 FEW012 SCT040 13/12 Q1024 NOSIG
23:54 Land
23:54 Wind:265º@008 Knots
23:54 Heading: 263º
23:54 Flight Duration: 01:19
23:54 Landing Weight: 194339 Lbs
23:54 POS N43º 33´ 52´´ W006º 02´ 24´´
23:58 Parking brakes on
23:58 Block to Block Duration: 01:28
23:58 Final Fuel: 11911 Lbls
23:58 Spent Fuel: 18099 Lbls
23:58 Flight Length: 461 NM
23:58 TOD Land Length: 212 NM

Exportar CSV

Powered by Drupal - Modified by Danger4k